sensor_id;sensor_type;location;lat;lon;timestamp;P1;durP1;ratioP1;P2;durP2;ratioP2
5277;SDS011;2662;51.194;6.614;2022-10-31T00:02:17;16.37;;;7.60;;
5277;SDS011;2662;51.194;6.614;2022-10-31T00:04:44;17.73;;;8.17;;
5277;SDS011;2662;51.194;6.614;2022-10-31T00:07:10;16.60;;;8.27;;
5277;SDS011;2662;51.194;6.614;2022-10-31T00:09:37;16.17;;;8.13;;
5277;SDS011;2662;51.194;6.614;2022-10-31T00:12:04;35.40;;;8.20;;
5277;SDS011;2662;51.194;6.614;2022-10-31T00:14:32;12.67;;;6.93;;
5277;SDS011;2662;51.194;6.614;2022-10-31T00:16:59;24.87;;;7.70;;
5277;SDS011;2662;51.194;6.614;2022-10-31T00:19:25;15.47;;;7.67;;
5277;SDS011;2662;51.194;6.614;2022-10-31T00:21:52;14.70;;;6.87;;
5277;SDS011;2662;51.194;6.614;2022-10-31T00:24:19;20.03;;;7.67;;
5277;SDS011;2662;51.194;6.614;2022-10-31T00:26:45;14.33;;;7.23;;
5277;SDS011;2662;51.194;6.614;2022-10-31T00:29:12;13.00;;;7.20;;
5277;SDS011;2662;51.194;6.614;2022-10-31T00:31:40;12.10;;;7.33;;
5277;SDS011;2662;51.194;6.614;2022-10-31T00:34:07;19.30;;;7.87;;
5277;SDS011;2662;51.194;6.614;2022-10-31T00:36:34;33.53;;;7.83;;
5277;SDS011;2662;51.194;6.614;2022-10-31T00:39:00;15.77;;;7.63;;
5277;SDS011;2662;51.194;6.614;2022-10-31T00:41:27;16.77;;;8.07;;
5277;SDS011;2662;51.194;6.614;2022-10-31T00:43:54;22.53;;;8.03;;
5277;SDS011;2662;51.194;6.614;2022-10-31T00:46:21;17.50;;;7.40;;
5277;SDS011;2662;51.194;6.614;2022-10-31T00:48:49;22.50;;;9.73;;
5277;SDS011;2662;51.194;6.614;2022-10-31T00:51:16;14.90;;;7.83;;
5277;SDS011;2662;51.194;6.614;2022-10-31T00:53:42;14.13;;;7.97;;
5277;SDS011;2662;51.194;6.614;2022-10-31T00:56:09;17.43;;;7.90;;
5277;SDS011;2662;51.194;6.614;2022-10-31T00:58:36;13.40;;;7.57;;
5277;SDS011;2662;51.194;6.614;2022-10-31T01:01:03;15.40;;;7.90;;
5277;SDS011;2662;51.194;6.614;2022-10-31T01:03:30;16.77;;;8.00;;
5277;SDS011;2662;51.194;6.614;2022-10-31T01:06:00;18.23;;;8.77;;
5277;SDS011;2662;51.194;6.614;2022-10-31T01:08:29;18.43;;;8.30;;
5277;SDS011;2662;51.194;6.614;2022-10-31T01:11:00;17.87;;;7.93;;
5277;SDS011;2662;51.194;6.614;2022-10-31T01:13:29;15.10;;;7.37;;
5277;SDS011;2662;51.194;6.614;2022-10-31T01:15:57;19.03;;;7.67;;
5277;SDS011;2662;51.194;6.614;2022-10-31T01:18:25;14.93;;;8.30;;
5277;SDS011;2662;51.194;6.614;2022-10-31T01:21:03;21.17;;;8.27;;
5277;SDS011;2662;51.194;6.614;2022-10-31T01:23:31;19.63;;;7.83;;
5277;SDS011;2662;51.194;6.614;2022-10-31T01:25:59;19.57;;;7.90;;
5277;SDS011;2662;51.194;6.614;2022-10-31T01:28:27;22.57;;;7.87;;
5277;SDS011;2662;51.194;6.614;2022-10-31T01:30:54;21.10;;;8.30;;
5277;SDS011;2662;51.194;6.614;2022-10-31T01:33:20;17.53;;;8.17;;
5277;SDS011;2662;51.194;6.614;2022-10-31T01:35:47;17.80;;;8.67;;
5277;SDS011;2662;51.194;6.614;2022-10-31T01:38:15;16.30;;;8.03;;
5277;SDS011;2662;51.194;6.614;2022-10-31T01:40:42;11.10;;;7.20;;
5277;SDS011;2662;51.194;6.614;2022-10-31T01:43:10;22.70;;;8.00;;
5277;SDS011;2662;51.194;6.614;2022-10-31T01:45:39;17.80;;;8.63;;
5277;SDS011;2662;51.194;6.614;2022-10-31T01:48:07;22.90;;;8.60;;
5277;SDS011;2662;51.194;6.614;2022-10-31T01:50:39;20.90;;;7.90;;
5277;SDS011;2662;51.194;6.614;2022-10-31T01:53:08;17.53;;;7.77;;
5277;SDS011;2662;51.194;6.614;2022-10-31T01:55:38;16.43;;;8.27;;
5277;SDS011;2662;51.194;6.614;2022-10-31T01:58:08;23.03;;;9.33;;
5277;SDS011;2662;51.194;6.614;2022-10-31T02:00:39;17.17;;;7.50;;
5277;SDS011;2662;51.194;6.614;2022-10-31T02:03:09;15.97;;;8.70;;
5277;SDS011;2662;51.194;6.614;2022-10-31T02:05:36;21.60;;;8.27;;
5277;SDS011;2662;51.194;6.614;2022-10-31T02:08:04;18.53;;;9.03;;
5277;SDS011;2662;51.194;6.614;2022-10-31T02:10:34;32.47;;;8.93;;
5277;SDS011;2662;51.194;6.614;2022-10-31T02:13:06;27.23;;;7.40;;
5277;SDS011;2662;51.194;6.614;2022-10-31T02:15:33;14.80;;;9.13;;
5277;SDS011;2662;51.194;6.614;2022-10-31T02:18:02;17.80;;;9.00;;
5277;SDS011;2662;51.194;6.614;2022-10-31T02:20:31;14.63;;;8.20;;
5277;SDS011;2662;51.194;6.614;2022-10-31T02:26:22;24.90;;;8.83;;
5277;SDS011;2662;51.194;6.614;2022-10-31T02:29:16;19.63;;;9.40;;
5277;SDS011;2662;51.194;6.614;2022-10-31T02:32:04;17.90;;;9.07;;
5277;SDS011;2662;51.194;6.614;2022-10-31T02:34:39;16.77;;;8.47;;
5277;SDS011;2662;51.194;6.614;2022-10-31T02:37:14;18.23;;;9.83;;
5277;SDS011;2662;51.194;6.614;2022-10-31T02:39:47;15.63;;;8.30;;
5277;SDS011;2662;51.194;6.614;2022-10-31T02:42:22;23.03;;;8.53;;
5277;SDS011;2662;51.194;6.614;2022-10-31T02:44:56;14.37;;;8.77;;
5277;SDS011;2662;51.194;6.614;2022-10-31T02:47:29;26.00;;;9.10;;
5277;SDS011;2662;51.194;6.614;2022-10-31T02:50:00;20.90;;;8.30;;
5277;SDS011;2662;51.194;6.614;2022-10-31T02:52:32;18.57;;;8.10;;
5277;SDS011;2662;51.194;6.614;2022-10-31T02:55:08;14.83;;;9.00;;
5277;SDS011;2662;51.194;6.614;2022-10-31T02:57:37;18.50;;;8.63;;
5277;SDS011;2662;51.194;6.614;2022-10-31T03:00:06;23.63;;;8.50;;
5277;SDS011;2662;51.194;6.614;2022-10-31T03:02:39;18.17;;;8.67;;
5277;SDS011;2662;51.194;6.614;2022-10-31T03:05:23;18.77;;;8.07;;
5277;SDS011;2662;51.194;6.614;2022-10-31T03:08:00;20.57;;;8.37;;
5277;SDS011;2662;51.194;6.614;2022-10-31T03:10:35;17.33;;;8.50;;
5277;SDS011;2662;51.194;6.614;2022-10-31T03:13:08;22.33;;;7.67;;
5277;SDS011;2662;51.194;6.614;2022-10-31T03:15:37;11.30;;;7.83;;
5277;SDS011;2662;51.194;6.614;2022-10-31T03:18:08;16.07;;;8.53;;
5277;SDS011;2662;51.194;6.614;2022-10-31T03:20:39;18.17;;;8.30;;
5277;SDS011;2662;51.194;6.614;2022-10-31T03:23:08;15.80;;;7.90;;
5277;SDS011;2662;51.194;6.614;2022-10-31T03:25:38;19.53;;;8.33;;
5277;SDS011;2662;51.194;6.614;2022-10-31T03:28:06;18.33;;;8.00;;
5277;SDS011;2662;51.194;6.614;2022-10-31T03:30:35;16.13;;;8.10;;
5277;SDS011;2662;51.194;6.614;2022-10-31T03:33:05;15.47;;;8.10;;
5277;SDS011;2662;51.194;6.614;2022-10-31T03:35:36;16.33;;;8.33;;
5277;SDS011;2662;51.194;6.614;2022-10-31T03:38:07;19.00;;;7.70;;
5277;SDS011;2662;51.194;6.614;2022-10-31T03:40:35;14.30;;;7.67;;
5277;SDS011;2662;51.194;6.614;2022-10-31T03:43:06;16.40;;;8.30;;
5277;SDS011;2662;51.194;6.614;2022-10-31T03:45:38;14.20;;;8.00;;
5277;SDS011;2662;51.194;6.614;2022-10-31T03:48:09;17.50;;;8.10;;
5277;SDS011;2662;51.194;6.614;2022-10-31T03:50:38;14.27;;;6.83;;
5277;SDS011;2662;51.194;6.614;2022-10-31T03:53:13;20.27;;;7.63;;
5277;SDS011;2662;51.194;6.614;2022-10-31T03:55:47;20.50;;;8.57;;
5277;SDS011;2662;51.194;6.614;2022-10-31T03:58:19;24.70;;;8.27;;
5277;SDS011;2662;51.194;6.614;2022-10-31T04:00:50;15.13;;;7.43;;
5277;SDS011;2662;51.194;6.614;2022-10-31T04:03:22;31.13;;;8.40;;
5277;SDS011;2662;51.194;6.614;2022-10-31T04:05:52;19.70;;;8.47;;
5277;SDS011;2662;51.194;6.614;2022-10-31T04:08:22;23.03;;;9.13;;
5277;SDS011;2662;51.194;6.614;2022-10-31T04:10:53;21.77;;;9.00;;
5277;SDS011;2662;51.194;6.614;2022-10-31T04:13:22;16.03;;;8.43;;
5277;SDS011;2662;51.194;6.614;2022-10-31T04:15:54;16.20;;;7.80;;
5277;SDS011;2662;51.194;6.614;2022-10-31T04:18:23;18.80;;;8.47;;
5277;SDS011;2662;51.194;6.614;2022-10-31T04:20:58;19.67;;;7.80;;
5277;SDS011;2662;51.194;6.614;2022-10-31T04:23:27;18.20;;;8.77;;
5277;SDS011;2662;51.194;6.614;2022-10-31T04:25:54;19.13;;;7.53;;
5277;SDS011;2662;51.194;6.614;2022-10-31T04:28:21;27.63;;;7.77;;
5277;SDS011;2662;51.194;6.614;2022-10-31T04:30:47;23.90;;;8.03;;
5277;SDS011;2662;51.194;6.614;2022-10-31T04:33:14;20.47;;;8.77;;
5277;SDS011;2662;51.194;6.614;2022-10-31T04:35:42;24.30;;;9.03;;
5277;SDS011;2662;51.194;6.614;2022-10-31T04:38:09;15.43;;;7.80;;
5277;SDS011;2662;51.194;6.614;2022-10-31T04:40:36;21.30;;;7.80;;
5277;SDS011;2662;51.194;6.614;2022-10-31T04:43:03;17.73;;;7.93;;
5277;SDS011;2662;51.194;6.614;2022-10-31T04:45:29;20.60;;;7.93;;
5277;SDS011;2662;51.194;6.614;2022-10-31T04:47:56;13.03;;;7.10;;
5277;SDS011;2662;51.194;6.614;2022-10-31T04:50:23;13.70;;;7.37;;
5277;SDS011;2662;51.194;6.614;2022-10-31T04:52:51;15.70;;;7.50;;
5277;SDS011;2662;51.194;6.614;2022-10-31T04:55:18;22.53;;;8.33;;
5277;SDS011;2662;51.194;6.614;2022-10-31T04:57:45;19.50;;;8.10;;
5277;SDS011;2662;51.194;6.614;2022-10-31T05:00:13;14.57;;;7.33;;
5277;SDS011;2662;51.194;6.614;2022-10-31T05:02:43;15.90;;;8.20;;
5277;SDS011;2662;51.194;6.614;2022-10-31T05:05:10;26.50;;;8.17;;
5277;SDS011;2662;51.194;6.614;2022-10-31T05:07:40;21.73;;;7.60;;
5277;SDS011;2662;51.194;6.614;2022-10-31T05:10:10;16.00;;;7.47;;
5277;SDS011;2662;51.194;6.614;2022-10-31T05:12:40;19.70;;;8.60;;
5277;SDS011;2662;51.194;6.614;2022-10-31T05:15:12;11.13;;;7.30;;
5277;SDS011;2662;51.194;6.614;2022-10-31T05:17:39;19.57;;;7.87;;
5277;SDS011;2662;51.194;6.614;2022-10-31T05:20:06;15.90;;;7.60;;
5277;SDS011;2662;51.194;6.614;2022-10-31T05:22:34;17.60;;;8.47;;
5277;SDS011;2662;51.194;6.614;2022-10-31T05:25:00;13.10;;;7.90;;
5277;SDS011;2662;51.194;6.614;2022-10-31T05:27:28;19.00;;;7.70;;
5277;SDS011;2662;51.194;6.614;2022-10-31T05:29:55;18.50;;;8.47;;
5277;SDS011;2662;51.194;6.614;2022-10-31T05:32:22;18.60;;;7.97;;
5277;SDS011;2662;51.194;6.614;2022-10-31T05:34:48;21.53;;;8.27;;
5277;SDS011;2662;51.194;6.614;2022-10-31T05:37:15;19.53;;;7.43;;
5277;SDS011;2662;51.194;6.614;2022-10-31T05:39:42;20.97;;;7.70;;
5277;SDS011;2662;51.194;6.614;2022-10-31T05:42:08;14.90;;;7.77;;
5277;SDS011;2662;51.194;6.614;2022-10-31T05:44:36;17.10;;;6.60;;
5277;SDS011;2662;51.194;6.614;2022-10-31T05:47:03;17.90;;;7.80;;
5277;SDS011;2662;51.194;6.614;2022-10-31T05:49:31;15.83;;;7.43;;
5277;SDS011;2662;51.194;6.614;2022-10-31T05:51:57;20.93;;;7.27;;
5277;SDS011;2662;51.194;6.614;2022-10-31T05:54:24;12.17;;;6.90;;
5277;SDS011;2662;51.194;6.614;2022-10-31T05:56:51;12.70;;;6.90;;
5277;SDS011;2662;51.194;6.614;2022-10-31T05:59:17;18.90;;;6.93;;
5277;SDS011;2662;51.194;6.614;2022-10-31T06:01:45;15.33;;;7.17;;
5277;SDS011;2662;51.194;6.614;2022-10-31T06:04:12;12.77;;;7.53;;
5277;SDS011;2662;51.194;6.614;2022-10-31T06:06:39;18.10;;;7.67;;
5277;SDS011;2662;51.194;6.614;2022-10-31T06:09:05;12.60;;;7.07;;
5277;SDS011;2662;51.194;6.614;2022-10-31T06:11:32;13.90;;;7.40;;
5277;SDS011;2662;51.194;6.614;2022-10-31T06:13:59;13.80;;;7.50;;
5277;SDS011;2662;51.194;6.614;2022-10-31T06:16:26;20.10;;;8.00;;
5277;SDS011;2662;51.194;6.614;2022-10-31T06:18:54;21.53;;;8.27;;
5277;SDS011;2662;51.194;6.614;2022-10-31T06:21:20;15.60;;;7.77;;
5277;SDS011;2662;51.194;6.614;2022-10-31T06:23:47;19.97;;;7.30;;
5277;SDS011;2662;51.194;6.614;2022-10-31T06:26:14;20.50;;;7.43;;
5277;SDS011;2662;51.194;6.614;2022-10-31T06:28:40;16.93;;;6.33;;
5277;SDS011;2662;51.194;6.614;2022-10-31T06:31:07;13.63;;;7.40;;
5277;SDS011;2662;51.194;6.614;2022-10-31T06:33:34;14.57;;;7.47;;
5277;SDS011;2662;51.194;6.614;2022-10-31T06:36:02;21.67;;;8.00;;
5277;SDS011;2662;51.194;6.614;2022-10-31T06:38:29;12.20;;;7.40;;
5277;SDS011;2662;51.194;6.614;2022-10-31T06:40:56;16.40;;;7.13;;
5277;SDS011;2662;51.194;6.614;2022-10-31T06:43:22;13.80;;;7.70;;
5277;SDS011;2662;51.194;6.614;2022-10-31T06:45:49;13.60;;;7.10;;
5277;SDS011;2662;51.194;6.614;2022-10-31T06:48:16;18.83;;;7.53;;
5277;SDS011;2662;51.194;6.614;2022-10-31T06:50:43;13.53;;;7.53;;
5277;SDS011;2662;51.194;6.614;2022-10-31T06:53:11;19.47;;;6.90;;
5277;SDS011;2662;51.194;6.614;2022-10-31T06:55:39;25.90;;;9.60;;
5277;SDS011;2662;51.194;6.614;2022-10-31T06:58:06;21.93;;;7.30;;
5277;SDS011;2662;51.194;6.614;2022-10-31T07:00:35;14.77;;;7.67;;
5277;SDS011;2662;51.194;6.614;2022-10-31T07:03:03;15.50;;;8.13;;
5277;SDS011;2662;51.194;6.614;2022-10-31T07:05:31;18.93;;;7.20;;
5277;SDS011;2662;51.194;6.614;2022-10-31T07:07:59;17.50;;;7.77;;
5277;SDS011;2662;51.194;6.614;2022-10-31T07:10:29;28.83;;;7.50;;
5277;SDS011;2662;51.194;6.614;2022-10-31T07:12:58;13.60;;;7.40;;
5277;SDS011;2662;51.194;6.614;2022-10-31T07:15:25;12.83;;;6.63;;
5277;SDS011;2662;51.194;6.614;2022-10-31T07:17:53;15.20;;;7.40;;
5277;SDS011;2662;51.194;6.614;2022-10-31T07:20:25;15.17;;;6.90;;
5277;SDS011;2662;51.194;6.614;2022-10-31T07:22:51;19.23;;;7.40;;
5277;SDS011;2662;51.194;6.614;2022-10-31T07:25:18;16.90;;;7.47;;
5277;SDS011;2662;51.194;6.614;2022-10-31T07:27:46;12.20;;;7.20;;
5277;SDS011;2662;51.194;6.614;2022-10-31T07:30:13;17.47;;;8.07;;
5277;SDS011;2662;51.194;6.614;2022-10-31T07:32:42;11.33;;;6.77;;
5277;SDS011;2662;51.194;6.614;2022-10-31T07:35:10;18.73;;;7.40;;
5277;SDS011;2662;51.194;6.614;2022-10-31T07:37:38;14.00;;;7.40;;
5277;SDS011;2662;51.194;6.614;2022-10-31T07:40:05;20.57;;;7.80;;
5277;SDS011;2662;51.194;6.614;2022-10-31T07:42:34;22.90;;;7.47;;
5277;SDS011;2662;51.194;6.614;2022-10-31T07:45:02;16.57;;;7.37;;
5277;SDS011;2662;51.194;6.614;2022-10-31T07:47:30;17.73;;;7.27;;
5277;SDS011;2662;51.194;6.614;2022-10-31T07:50:03;15.77;;;7.57;;
5277;SDS011;2662;51.194;6.614;2022-10-31T07:52:31;13.07;;;7.70;;
5277;SDS011;2662;51.194;6.614;2022-10-31T07:54:58;16.77;;;7.80;;
5277;SDS011;2662;51.194;6.614;2022-10-31T07:57:25;9.80;;;6.40;;
5277;SDS011;2662;51.194;6.614;2022-10-31T07:59:52;11.83;;;7.10;;
5277;SDS011;2662;51.194;6.614;2022-10-31T08:02:20;13.73;;;7.60;;
5277;SDS011;2662;51.194;6.614;2022-10-31T08:04:47;13.57;;;7.20;;
5277;SDS011;2662;51.194;6.614;2022-10-31T08:07:15;19.80;;;7.27;;
5277;SDS011;2662;51.194;6.614;2022-10-31T08:09:41;17.77;;;6.97;;
5277;SDS011;2662;51.194;6.614;2022-10-31T08:12:08;10.93;;;6.37;;
5277;SDS011;2662;51.194;6.614;2022-10-31T08:14:35;15.90;;;6.97;;
5277;SDS011;2662;51.194;6.614;2022-10-31T08:17:02;16.80;;;7.40;;
5277;SDS011;2662;51.194;6.614;2022-10-31T08:19:30;15.50;;;6.70;;
5277;SDS011;2662;51.194;6.614;2022-10-31T08:21:56;23.43;;;7.30;;
5277;SDS011;2662;51.194;6.614;2022-10-31T08:24:29;31.17;;;7.60;;
5277;SDS011;2662;51.194;6.614;2022-10-31T08:26:56;14.43;;;7.37;;
5277;SDS011;2662;51.194;6.614;2022-10-31T08:29:23;17.33;;;6.83;;
5277;SDS011;2662;51.194;6.614;2022-10-31T08:31:49;14.33;;;7.47;;
5277;SDS011;2662;51.194;6.614;2022-10-31T08:34:16;20.53;;;7.47;;
5277;SDS011;2662;51.194;6.614;2022-10-31T08:36:44;29.70;;;7.30;;
5277;SDS011;2662;51.194;6.614;2022-10-31T08:39:11;22.23;;;7.40;;
5277;SDS011;2662;51.194;6.614;2022-10-31T08:41:37;13.90;;;7.07;;
5277;SDS011;2662;51.194;6.614;2022-10-31T08:44:04;18.03;;;7.30;;
5277;SDS011;2662;51.194;6.614;2022-10-31T08:46:31;20.67;;;8.10;;
5277;SDS011;2662;51.194;6.614;2022-10-31T08:48:57;25.93;;;7.90;;
5277;SDS011;2662;51.194;6.614;2022-10-31T08:51:24;17.50;;;7.13;;
5277;SDS011;2662;51.194;6.614;2022-10-31T08:53:52;14.00;;;8.60;;
5277;SDS011;2662;51.194;6.614;2022-10-31T08:56:19;16.30;;;8.00;;
5277;SDS011;2662;51.194;6.614;2022-10-31T08:58:47;23.17;;;7.27;;
5277;SDS011;2662;51.194;6.614;2022-10-31T09:01:14;18.00;;;7.60;;
5277;SDS011;2662;51.194;6.614;2022-10-31T09:03:40;16.53;;;8.20;;
5277;SDS011;2662;51.194;6.614;2022-10-31T09:06:07;17.93;;;8.20;;
5277;SDS011;2662;51.194;6.614;2022-10-31T09:08:34;20.30;;;8.07;;
5277;SDS011;2662;51.194;6.614;2022-10-31T09:11:03;21.80;;;8.00;;
5277;SDS011;2662;51.194;6.614;2022-10-31T09:13:31;17.33;;;7.40;;
5277;SDS011;2662;51.194;6.614;2022-10-31T09:15:58;16.63;;;7.53;;
5277;SDS011;2662;51.194;6.614;2022-10-31T09:18:25;18.70;;;7.90;;
5277;SDS011;2662;51.194;6.614;2022-10-31T09:20:53;18.93;;;8.20;;
5277;SDS011;2662;51.194;6.614;2022-10-31T09:23:20;18.00;;;8.33;;
5277;SDS011;2662;51.194;6.614;2022-10-31T09:25:49;18.10;;;8.13;;
5277;SDS011;2662;51.194;6.614;2022-10-31T09:28:18;14.60;;;6.93;;
5277;SDS011;2662;51.194;6.614;2022-10-31T09:30:47;15.03;;;7.50;;
5277;SDS011;2662;51.194;6.614;2022-10-31T09:33:14;13.13;;;7.77;;
5277;SDS011;2662;51.194;6.614;2022-10-31T09:35:42;14.97;;;7.67;;
5277;SDS011;2662;51.194;6.614;2022-10-31T09:38:10;20.77;;;7.93;;
5277;SDS011;2662;51.194;6.614;2022-10-31T09:40:40;18.87;;;7.00;;
5277;SDS011;2662;51.194;6.614;2022-10-31T09:43:11;20.67;;;7.37;;
5277;SDS011;2662;51.194;6.614;2022-10-31T09:45:43;14.13;;;7.10;;
5277;SDS011;2662;51.194;6.614;2022-10-31T09:48:24;14.47;;;7.97;;
5277;SDS011;2662;51.194;6.614;2022-10-31T09:51:05;20.20;;;7.90;;
5277;SDS011;2662;51.194;6.614;2022-10-31T09:53:36;17.77;;;8.00;;
5277;SDS011;2662;51.194;6.614;2022-10-31T09:56:07;19.13;;;8.47;;
5277;SDS011;2662;51.194;6.614;2022-10-31T09:58:41;16.10;;;7.87;;
5277;SDS011;2662;51.194;6.614;2022-10-31T10:01:14;14.73;;;7.97;;
5277;SDS011;2662;51.194;6.614;2022-10-31T10:03:50;28.47;;;7.70;;
5277;SDS011;2662;51.194;6.614;2022-10-31T10:06:21;25.33;;;7.90;;
5277;SDS011;2662;51.194;6.614;2022-10-31T10:08:52;25.43;;;8.47;;
5277;SDS011;2662;51.194;6.614;2022-10-31T10:11:23;24.60;;;8.13;;
5277;SDS011;2662;51.194;6.614;2022-10-31T10:14:03;13.70;;;7.90;;
5277;SDS011;2662;51.194;6.614;2022-10-31T10:16:43;15.80;;;8.17;;
5277;SDS011;2662;51.194;6.614;2022-10-31T10:19:22;17.20;;;8.27;;
5277;SDS011;2662;51.194;6.614;2022-10-31T10:22:00;17.50;;;7.87;;
5277;SDS011;2662;51.194;6.614;2022-10-31T10:24:39;20.90;;;8.80;;
5277;SDS011;2662;51.194;6.614;2022-10-31T10:27:19;20.93;;;8.00;;
5277;SDS011;2662;51.194;6.614;2022-10-31T10:29:55;25.93;;;8.47;;
5277;SDS011;2662;51.194;6.614;2022-10-31T10:32:29;17.20;;;7.90;;
5277;SDS011;2662;51.194;6.614;2022-10-31T10:35:07;21.27;;;7.80;;
5277;SDS011;2662;51.194;6.614;2022-10-31T10:37:41;17.10;;;8.97;;
5277;SDS011;2662;51.194;6.614;2022-10-31T10:40:12;17.83;;;7.90;;
5277;SDS011;2662;51.194;6.614;2022-10-31T10:42:42;26.67;;;8.57;;
5277;SDS011;2662;51.194;6.614;2022-10-31T10:45:34;22.33;;;8.33;;
5277;SDS011;2662;51.194;6.614;2022-10-31T10:48:23;18.13;;;7.80;;
5277;SDS011;2662;51.194;6.614;2022-10-31T10:50:56;34.03;;;9.50;;
5277;SDS011;2662;51.194;6.614;2022-10-31T10:53:35;21.37;;;9.10;;
5277;SDS011;2662;51.194;6.614;2022-10-31T10:56:27;19.53;;;8.63;;
5277;SDS011;2662;51.194;6.614;2022-10-31T10:59:01;28.73;;;9.73;;
5277;SDS011;2662;51.194;6.614;2022-10-31T11:01:29;17.10;;;9.50;;
5277;SDS011;2662;51.194;6.614;2022-10-31T11:03:57;20.67;;;9.00;;
5277;SDS011;2662;51.194;6.614;2022-10-31T11:06:24;17.87;;;9.00;;
5277;SDS011;2662;51.194;6.614;2022-10-31T11:08:51;18.57;;;8.07;;
5277;SDS011;2662;51.194;6.614;2022-10-31T11:11:22;24.37;;;8.20;;
5277;SDS011;2662;51.194;6.614;2022-10-31T11:13:52;18.70;;;8.90;;
5277;SDS011;2662;51.194;6.614;2022-10-31T11:16:29;22.80;;;8.93;;
5277;SDS011;2662;51.194;6.614;2022-10-31T11:19:07;23.17;;;8.50;;
5277;SDS011;2662;51.194;6.614;2022-10-31T11:21:40;16.67;;;7.70;;
5277;SDS011;2662;51.194;6.614;2022-10-31T11:24:12;28.40;;;9.60;;
5277;SDS011;2662;51.194;6.614;2022-10-31T11:26:41;24.27;;;9.00;;
5277;SDS011;2662;51.194;6.614;2022-10-31T11:29:12;17.13;;;7.60;;
5277;SDS011;2662;51.194;6.614;2022-10-31T11:31:41;16.43;;;8.20;;
5277;SDS011;2662;51.194;6.614;2022-10-31T11:34:14;17.87;;;7.80;;
5277;SDS011;2662;51.194;6.614;2022-10-31T11:36:53;21.27;;;9.07;;
5277;SDS011;2662;51.194;6.614;2022-10-31T11:39:22;17.60;;;8.17;;
5277;SDS011;2662;51.194;6.614;2022-10-31T11:41:50;14.20;;;7.00;;
5277;SDS011;2662;51.194;6.614;2022-10-31T11:44:19;19.27;;;8.10;;
5277;SDS011;2662;51.194;6.614;2022-10-31T11:46:50;16.37;;;7.70;;
5277;SDS011;2662;51.194;6.614;2022-10-31T11:49:20;20.27;;;7.60;;
5277;SDS011;2662;51.194;6.614;2022-10-31T11:51:55;13.87;;;6.13;;
5277;SDS011;2662;51.194;6.614;2022-10-31T11:54:25;13.57;;;6.10;;
5277;SDS011;2662;51.194;6.614;2022-10-31T11:56:54;23.53;;;6.73;;
5277;SDS011;2662;51.194;6.614;2022-10-31T11:59:23;18.80;;;6.13;;
5277;SDS011;2662;51.194;6.614;2022-10-31T12:01:53;17.47;;;6.47;;
5277;SDS011;2662;51.194;6.614;2022-10-31T12:04:26;13.33;;;5.73;;
5277;SDS011;2662;51.194;6.614;2022-10-31T12:07:01;15.33;;;5.47;;
5277;SDS011;2662;51.194;6.614;2022-10-31T12:09:28;11.80;;;6.20;;
5277;SDS011;2662;51.194;6.614;2022-10-31T12:12:05;11.83;;;6.13;;
5277;SDS011;2662;51.194;6.614;2022-10-31T12:14:44;9.60;;;5.40;;
5277;SDS011;2662;51.194;6.614;2022-10-31T12:17:20;13.93;;;5.40;;
5277;SDS011;2662;51.194;6.614;2022-10-31T12:19:55;9.57;;;4.93;;
5277;SDS011;2662;51.194;6.614;2022-10-31T12:22:34;13.40;;;4.63;;
5277;SDS011;2662;51.194;6.614;2022-10-31T12:25:16;14.20;;;5.67;;
5277;SDS011;2662;51.194;6.614;2022-10-31T12:27:54;14.30;;;5.30;;
5277;SDS011;2662;51.194;6.614;2022-10-31T12:30:32;19.90;;;5.40;;
5277;SDS011;2662;51.194;6.614;2022-10-31T12:33:20;21.50;;;5.10;;
5277;SDS011;2662;51.194;6.614;2022-10-31T12:36:07;12.33;;;4.80;;
5277;SDS011;2662;51.194;6.614;2022-10-31T12:38:51;13.43;;;5.60;;
5277;SDS011;2662;51.194;6.614;2022-10-31T12:41:44;19.87;;;5.20;;
5277;SDS011;2662;51.194;6.614;2022-10-31T12:44:21;17.07;;;5.30;;
5277;SDS011;2662;51.194;6.614;2022-10-31T12:47:05;10.83;;;4.47;;
5277;SDS011;2662;51.194;6.614;2022-10-31T12:49:48;11.13;;;4.77;;
5277;SDS011;2662;51.194;6.614;2022-10-31T12:52:25;8.93;;;4.33;;
5277;SDS011;2662;51.194;6.614;2022-10-31T12:55:05;20.30;;;4.67;;
5277;SDS011;2662;51.194;6.614;2022-10-31T12:57:44;12.83;;;4.73;;
5277;SDS011;2662;51.194;6.614;2022-10-31T13:00:14;16.17;;;4.77;;
5277;SDS011;2662;51.194;6.614;2022-10-31T13:02:42;12.17;;;4.80;;
5277;SDS011;2662;51.194;6.614;2022-10-31T13:05:16;18.00;;;4.30;;
5277;SDS011;2662;51.194;6.614;2022-10-31T13:07:48;10.53;;;4.60;;
5277;SDS011;2662;51.194;6.614;2022-10-31T13:10:19;17.40;;;4.67;;
5277;SDS011;2662;51.194;6.614;2022-10-31T13:12:51;9.17;;;4.40;;
5277;SDS011;2662;51.194;6.614;2022-10-31T13:15:22;14.07;;;4.47;;
5277;SDS011;2662;51.194;6.614;2022-10-31T13:17:51;13.07;;;4.53;;
5277;SDS011;2662;51.194;6.614;2022-10-31T13:20:23;15.27;;;4.70;;
5277;SDS011;2662;51.194;6.614;2022-10-31T13:22:55;9.00;;;3.80;;
5277;SDS011;2662;51.194;6.614;2022-10-31T13:25:28;14.83;;;4.90;;
5277;SDS011;2662;51.194;6.614;2022-10-31T13:27:58;18.33;;;5.00;;
5277;SDS011;2662;51.194;6.614;2022-10-31T13:30:28;11.70;;;5.07;;
5277;SDS011;2662;51.194;6.614;2022-10-31T13:32:58;15.80;;;4.47;;
5277;SDS011;2662;51.194;6.614;2022-10-31T13:35:30;16.67;;;4.53;;
5277;SDS011;2662;51.194;6.614;2022-10-31T13:38:14;13.97;;;4.50;;
5277;SDS011;2662;51.194;6.614;2022-10-31T13:40:49;17.27;;;4.87;;
5277;SDS011;2662;51.194;6.614;2022-10-31T13:43:22;9.80;;;4.60;;
5277;SDS011;2662;51.194;6.614;2022-10-31T13:45:55;13.03;;;4.40;;
5277;SDS011;2662;51.194;6.614;2022-10-31T13:48:38;10.60;;;4.90;;
5277;SDS011;2662;51.194;6.614;2022-10-31T13:51:08;10.57;;;4.40;;
5277;SDS011;2662;51.194;6.614;2022-10-31T13:53:39;12.63;;;4.30;;
5277;SDS011;2662;51.194;6.614;2022-10-31T13:56:15;21.37;;;4.83;;
5277;SDS011;2662;51.194;6.614;2022-10-31T13:58:56;16.93;;;4.70;;
5277;SDS011;2662;51.194;6.614;2022-10-31T14:01:25;20.80;;;5.03;;
5277;SDS011;2662;51.194;6.614;2022-10-31T14:03:58;10.40;;;4.33;;
5277;SDS011;2662;51.194;6.614;2022-10-31T14:06:35;11.03;;;4.30;;
5277;SDS011;2662;51.194;6.614;2022-10-31T14:09:06;11.93;;;3.73;;
5277;SDS011;2662;51.194;6.614;2022-10-31T14:11:45;15.50;;;4.37;;
5277;SDS011;2662;51.194;6.614;2022-10-31T14:14:13;13.03;;;4.33;;
5277;SDS011;2662;51.194;6.614;2022-10-31T14:16:42;17.10;;;4.57;;
5277;SDS011;2662;51.194;6.614;2022-10-31T14:19:13;12.70;;;4.47;;
5277;SDS011;2662;51.194;6.614;2022-10-31T14:21:43;19.77;;;5.33;;
5277;SDS011;2662;51.194;6.614;2022-10-31T14:24:15;12.93;;;3.70;;
5277;SDS011;2662;51.194;6.614;2022-10-31T14:26:58;12.10;;;4.77;;
5277;SDS011;2662;51.194;6.614;2022-10-31T14:29:26;9.67;;;3.83;;
5277;SDS011;2662;51.194;6.614;2022-10-31T14:31:55;10.63;;;4.40;;
5277;SDS011;2662;51.194;6.614;2022-10-31T14:34:26;11.93;;;3.97;;
5277;SDS011;2662;51.194;6.614;2022-10-31T14:37:08;12.83;;;4.50;;
5277;SDS011;2662;51.194;6.614;2022-10-31T14:39:50;13.37;;;4.07;;
5277;SDS011;2662;51.194;6.614;2022-10-31T14:42:31;10.03;;;3.97;;
5277;SDS011;2662;51.194;6.614;2022-10-31T14:45:25;13.63;;;3.97;;
5277;SDS011;2662;51.194;6.614;2022-10-31T14:48:04;6.23;;;3.80;;
5277;SDS011;2662;51.194;6.614;2022-10-31T14:50:40;15.33;;;5.00;;
5277;SDS011;2662;51.194;6.614;2022-10-31T14:53:13;15.23;;;4.13;;
5277;SDS011;2662;51.194;6.614;2022-10-31T14:55:46;8.03;;;3.97;;
5277;SDS011;2662;51.194;6.614;2022-10-31T14:58:16;19.43;;;4.23;;
5277;SDS011;2662;51.194;6.614;2022-10-31T15:00:45;11.73;;;4.17;;
5277;SDS011;2662;51.194;6.614;2022-10-31T15:03:14;11.73;;;4.63;;
5277;SDS011;2662;51.194;6.614;2022-10-31T15:05:44;16.73;;;3.40;;
5277;SDS011;2662;51.194;6.614;2022-10-31T15:08:25;14.00;;;4.27;;
5277;SDS011;2662;51.194;6.614;2022-10-31T15:10:56;8.93;;;4.07;;
5277;SDS011;2662;51.194;6.614;2022-10-31T15:13:23;13.97;;;4.50;;
5277;SDS011;2662;51.194;6.614;2022-10-31T15:15:50;9.83;;;3.70;;
5277;SDS011;2662;51.194;6.614;2022-10-31T15:18:21;8.73;;;4.17;;
5277;SDS011;2662;51.194;6.614;2022-10-31T15:20:49;6.07;;;3.50;;
5277;SDS011;2662;51.194;6.614;2022-10-31T15:23:20;13.80;;;3.43;;
5277;SDS011;2662;51.194;6.614;2022-10-31T15:25:48;13.10;;;3.77;;
5277;SDS011;2662;51.194;6.614;2022-10-31T15:28:20;10.00;;;4.40;;